sensor_id;sensor_type;location;lat;lon;timestamp;P1;durP1;ratioP1;P2;durP2;ratioP2
26516;SDS011;14190;51.342;6.338;2023-07-28T00:01:01;2.52;;;1.62;;
26516;SDS011;14190;51.342;6.338;2023-07-28T00:03:28;1.22;;;1.15;;
26516;SDS011;14190;51.342;6.338;2023-07-28T00:05:56;4.15;;;1.17;;
26516;SDS011;14190;51.342;6.338;2023-07-28T00:08:23;4.58;;;1.70;;
26516;SDS011;14190;51.342;6.338;2023-07-28T00:10:51;2.37;;;1.62;;
26516;SDS011;14190;51.342;6.338;2023-07-28T00:13:18;2.27;;;1.77;;
26516;SDS011;14190;51.342;6.338;2023-07-28T00:15:45;6.20;;;2.72;;
26516;SDS011;14190;51.342;6.338;2023-07-28T00:18:13;3.60;;;2.83;;
26516;SDS011;14190;51.342;6.338;2023-07-28T00:20:40;2.92;;;2.52;;
26516;SDS011;14190;51.342;6.338;2023-07-28T00:23:07;4.12;;;3.00;;
26516;SDS011;14190;51.342;6.338;2023-07-28T00:25:35;5.92;;;3.75;;
26516;SDS011;14190;51.342;6.338;2023-07-28T00:28:02;4.42;;;2.83;;
26516;SDS011;14190;51.342;6.338;2023-07-28T00:30:30;3.00;;;1.72;;
26516;SDS011;14190;51.342;6.338;2023-07-28T00:32:57;9.45;;;3.58;;
26516;SDS011;14190;51.342;6.338;2023-07-28T00:35:25;10.82;;;6.62;;
26516;SDS011;14190;51.342;6.338;2023-07-28T00:37:52;10.15;;;5.72;;
26516;SDS011;14190;51.342;6.338;2023-07-28T00:40:20;6.15;;;4.28;;
26516;SDS011;14190;51.342;6.338;2023-07-28T00:42:49;5.97;;;2.65;;
26516;SDS011;14190;51.342;6.338;2023-07-28T00:45:16;11.70;;;6.10;;
26516;SDS011;14190;51.342;6.338;2023-07-28T00:47:44;9.08;;;5.72;;
26516;SDS011;14190;51.342;6.338;2023-07-28T00:50:11;6.03;;;3.08;;
26516;SDS011;14190;51.342;6.338;2023-07-28T00:52:39;14.78;;;7.25;;
26516;SDS011;14190;51.342;6.338;2023-07-28T00:55:06;10.80;;;4.22;;
26516;SDS011;14190;51.342;6.338;2023-07-28T00:57:34;13.70;;;7.42;;
26516;SDS011;14190;51.342;6.338;2023-07-28T01:00:01;8.78;;;4.33;;
26516;SDS011;14190;51.342;6.338;2023-07-28T01:02:29;2.62;;;2.02;;
26516;SDS011;14190;51.342;6.338;2023-07-28T01:04:56;6.08;;;3.08;;
26516;SDS011;14190;51.342;6.338;2023-07-28T01:07:30;13.85;;;6.42;;
26516;SDS011;14190;51.342;6.338;2023-07-28T01:09:57;3.50;;;2.35;;
26516;SDS011;14190;51.342;6.338;2023-07-28T01:12:25;4.03;;;2.33;;
26516;SDS011;14190;51.342;6.338;2023-07-28T01:14:52;5.30;;;2.80;;
26516;SDS011;14190;51.342;6.338;2023-07-28T01:17:19;15.58;;;7.37;;
26516;SDS011;14190;51.342;6.338;2023-07-28T01:19:49;5.33;;;2.95;;
26516;SDS011;14190;51.342;6.338;2023-07-28T01:22:39;5.12;;;3.12;;
26516;SDS011;14190;51.342;6.338;2023-07-28T01:27:47;3.75;;;2.40;;
26516;SDS011;14190;51.342;6.338;2023-07-28T01:30:15;3.83;;;2.90;;
26516;SDS011;14190;51.342;6.338;2023-07-28T01:32:42;7.35;;;3.52;;
26516;SDS011;14190;51.342;6.338;2023-07-28T01:35:10;9.65;;;3.92;;
26516;SDS011;14190;51.342;6.338;2023-07-28T01:37:37;12.15;;;5.97;;
26516;SDS011;14190;51.342;6.338;2023-07-28T01:40:05;7.12;;;4.80;;
26516;SDS011;14190;51.342;6.338;2023-07-28T01:42:33;7.15;;;3.70;;
26516;SDS011;14190;51.342;6.338;2023-07-28T01:45:00;3.22;;;1.77;;
26516;SDS011;14190;51.342;6.338;2023-07-28T01:47:27;2.02;;;1.62;;
26516;SDS011;14190;51.342;6.338;2023-07-28T01:49:56;3.40;;;1.90;;
26516;SDS011;14190;51.342;6.338;2023-07-28T01:52:23;1.70;;;1.32;;
26516;SDS011;14190;51.342;6.338;2023-07-28T01:54:50;2.95;;;2.00;;
26516;SDS011;14190;51.342;6.338;2023-07-28T01:57:18;3.27;;;2.02;;
26516;SDS011;14190;51.342;6.338;2023-07-28T01:59:45;3.37;;;2.27;;
26516;SDS011;14190;51.342;6.338;2023-07-28T02:02:12;3.08;;;2.55;;
26516;SDS011;14190;51.342;6.338;2023-07-28T02:04:40;7.33;;;5.00;;
26516;SDS011;14190;51.342;6.338;2023-07-28T02:07:07;3.10;;;2.08;;
26516;SDS011;14190;51.342;6.338;2023-07-28T02:09:35;1.07;;;0.80;;
26516;SDS011;14190;51.342;6.338;2023-07-28T02:12:02;5.75;;;3.33;;
26516;SDS011;14190;51.342;6.338;2023-07-28T02:14:29;3.95;;;3.60;;
26516;SDS011;14190;51.342;6.338;2023-07-28T02:16:57;3.85;;;1.55;;
26516;SDS011;14190;51.342;6.338;2023-07-28T02:19:24;2.15;;;1.05;;
26516;SDS011;14190;51.342;6.338;2023-07-28T02:21:52;3.52;;;2.37;;
26516;SDS011;14190;51.342;6.338;2023-07-28T02:24:19;1.62;;;1.05;;
26516;SDS011;14190;51.342;6.338;2023-07-28T02:26:46;4.78;;;3.05;;
26516;SDS011;14190;51.342;6.338;2023-07-28T02:29:14;1.45;;;0.62;;
26516;SDS011;14190;51.342;6.338;2023-07-28T02:31:41;2.92;;;0.90;;
26516;SDS011;14190;51.342;6.338;2023-07-28T02:34:08;1.80;;;0.78;;
26516;SDS011;14190;51.342;6.338;2023-07-28T02:36:36;1.67;;;1.57;;
26516;SDS011;14190;51.342;6.338;2023-07-28T02:39:03;0.98;;;0.60;;
26516;SDS011;14190;51.342;6.338;2023-07-28T02:41:30;3.75;;;1.42;;
26516;SDS011;14190;51.342;6.338;2023-07-28T02:43:58;3.27;;;0.88;;
26516;SDS011;14190;51.342;6.338;2023-07-28T02:46:25;1.07;;;0.98;;
26516;SDS011;14190;51.342;6.338;2023-07-28T02:48:52;0.53;;;0.20;;
26516;SDS011;14190;51.342;6.338;2023-07-28T02:51:20;0.20;;;0.20;;
26516;SDS011;14190;51.342;6.338;2023-07-28T02:53:47;1.72;;;0.95;;
26516;SDS011;14190;51.342;6.338;2023-07-28T02:56:14;1.50;;;0.78;;
26516;SDS011;14190;51.342;6.338;2023-07-28T02:58:42;0.35;;;0.35;;
26516;SDS011;14190;51.342;6.338;2023-07-28T03:01:10;0.25;;;0.25;;
26516;SDS011;14190;51.342;6.338;2023-07-28T03:03:37;0.20;;;0.20;;
26516;SDS011;14190;51.342;6.338;2023-07-28T03:06:04;0.50;;;0.40;;
26516;SDS011;14190;51.342;6.338;2023-07-28T03:08:34;0.33;;;0.30;;
26516;SDS011;14190;51.342;6.338;2023-07-28T03:11:03;0.25;;;0.25;;
26516;SDS011;14190;51.342;6.338;2023-07-28T03:13:30;0.40;;;0.40;;
26516;SDS011;14190;51.342;6.338;2023-07-28T03:15:57;0.20;;;0.20;;
26516;SDS011;14190;51.342;6.338;2023-07-28T03:18:25;0.70;;;0.23;;
26516;SDS011;14190;51.342;6.338;2023-07-28T03:20:52;0.13;;;0.13;;
26516;SDS011;14190;51.342;6.338;2023-07-28T03:23:20;0.28;;;0.28;;
26516;SDS011;14190;51.342;6.338;2023-07-28T03:25:47;0.20;;;0.20;;
26516;SDS011;14190;51.342;6.338;2023-07-28T03:28:15;0.40;;;0.40;;
26516;SDS011;14190;51.342;6.338;2023-07-28T03:30:42;0.20;;;0.20;;
26516;SDS011;14190;51.342;6.338;2023-07-28T03:33:09;0.47;;;0.47;;
26516;SDS011;14190;51.342;6.338;2023-07-28T03:35:37;0.65;;;0.65;;
26516;SDS011;14190;51.342;6.338;2023-07-28T03:38:06;0.33;;;0.30;;
26516;SDS011;14190;51.342;6.338;2023-07-28T03:40:33;0.28;;;0.20;;
26516;SDS011;14190;51.342;6.338;2023-07-28T03:43:01;0.20;;;0.20;;
26516;SDS011;14190;51.342;6.338;2023-07-28T03:45:29;0.35;;;0.33;;
26516;SDS011;14190;51.342;6.338;2023-07-28T03:47:57;1.15;;;0.20;;
26516;SDS011;14190;51.342;6.338;2023-07-28T03:50:24;0.42;;;0.20;;
26516;SDS011;14190;51.342;6.338;2023-07-28T03:52:52;0.25;;;0.10;;
26516;SDS011;14190;51.342;6.338;2023-07-28T03:55:20;0.10;;;0.10;;
26516;SDS011;14190;51.342;6.338;2023-07-28T03:57:47;0.20;;;0.20;;
26516;SDS011;14190;51.342;6.338;2023-07-28T04:00:15;0.20;;;0.20;;
26516;SDS011;14190;51.342;6.338;2023-07-28T04:02:41;0.62;;;0.20;;
26516;SDS011;14190;51.342;6.338;2023-07-28T04:05:09;0.25;;;0.23;;
26516;SDS011;14190;51.342;6.338;2023-07-28T04:07:36;0.10;;;0.10;;
26516;SDS011;14190;51.342;6.338;2023-07-28T04:10:04;0.10;;;0.10;;
26516;SDS011;14190;51.342;6.338;2023-07-28T04:12:31;0.25;;;0.25;;
26516;SDS011;14190;51.342;6.338;2023-07-28T04:14:59;1.50;;;1.25;;
26516;SDS011;14190;51.342;6.338;2023-07-28T04:17:27;0.55;;;0.55;;
26516;SDS011;14190;51.342;6.338;2023-07-28T04:19:54;1.07;;;0.55;;
26516;SDS011;14190;51.342;6.338;2023-07-28T04:22:22;1.50;;;1.40;;
26516;SDS011;14190;51.342;6.338;2023-07-28T04:24:51;2.42;;;1.35;;
26516;SDS011;14190;51.342;6.338;2023-07-28T04:27:20;3.95;;;1.17;;
26516;SDS011;14190;51.342;6.338;2023-07-28T04:29:48;0.70;;;0.70;;
26516;SDS011;14190;51.342;6.338;2023-07-28T04:32:17;6.25;;;0.70;;
26516;SDS011;14190;51.342;6.338;2023-07-28T04:34:44;1.32;;;0.98;;
26516;SDS011;14190;51.342;6.338;2023-07-28T04:37:13;1.17;;;0.80;;
26516;SDS011;14190;51.342;6.338;2023-07-28T04:39:45;0.80;;;0.80;;
26516;SDS011;14190;51.342;6.338;2023-07-28T04:42:13;1.15;;;1.07;;
26516;SDS011;14190;51.342;6.338;2023-07-28T04:44:42;1.15;;;0.80;;
26516;SDS011;14190;51.342;6.338;2023-07-28T04:47:12;7.30;;;1.03;;
26516;SDS011;14190;51.342;6.338;2023-07-28T04:49:40;1.00;;;0.95;;
26516;SDS011;14190;51.342;6.338;2023-07-28T04:52:10;1.70;;;1.23;;
26516;SDS011;14190;51.342;6.338;2023-07-28T04:54:39;0.95;;;0.47;;
26516;SDS011;14190;51.342;6.338;2023-07-28T04:57:07;0.35;;;0.35;;
26516;SDS011;14190;51.342;6.338;2023-07-28T04:59:36;0.50;;;0.30;;
26516;SDS011;14190;51.342;6.338;2023-07-28T05:02:03;0.50;;;0.28;;
26516;SDS011;14190;51.342;6.338;2023-07-28T05:04:31;0.30;;;0.30;;
26516;SDS011;14190;51.342;6.338;2023-07-28T05:06:59;0.68;;;0.47;;
26516;SDS011;14190;51.342;6.338;2023-07-28T05:09:26;0.30;;;0.30;;
26516;SDS011;14190;51.342;6.338;2023-07-28T05:11:55;1.35;;;0.40;;
26516;SDS011;14190;51.342;6.338;2023-07-28T05:14:22;0.68;;;0.62;;
26516;SDS011;14190;51.342;6.338;2023-07-28T05:16:49;0.50;;;0.37;;
26516;SDS011;14190;51.342;6.338;2023-07-28T05:19:21;0.42;;;0.42;;
26516;SDS011;14190;51.342;6.338;2023-07-28T05:21:59;0.30;;;0.30;;
26516;SDS011;14190;51.342;6.338;2023-07-28T05:24:33;1.95;;;0.68;;
26516;SDS011;14190;51.342;6.338;2023-07-28T05:27:00;0.80;;;0.40;;
26516;SDS011;14190;51.342;6.338;2023-07-28T05:29:28;0.50;;;0.50;;
26516;SDS011;14190;51.342;6.338;2023-07-28T05:31:58;0.45;;;0.45;;
26516;SDS011;14190;51.342;6.338;2023-07-28T05:34:29;1.40;;;0.95;;
26516;SDS011;14190;51.342;6.338;2023-07-28T05:36:57;0.88;;;0.42;;
26516;SDS011;14190;51.342;6.338;2023-07-28T05:39:26;0.65;;;0.42;;
26516;SDS011;14190;51.342;6.338;2023-07-28T05:41:53;1.85;;;0.50;;
26516;SDS011;14190;51.342;6.338;2023-07-28T05:44:20;0.78;;;0.78;;
26516;SDS011;14190;51.342;6.338;2023-07-28T05:46:48;4.20;;;1.92;;
26516;SDS011;14190;51.342;6.338;2023-07-28T05:49:15;2.98;;;1.32;;
26516;SDS011;14190;51.342;6.338;2023-07-28T05:51:43;3.90;;;2.22;;
26516;SDS011;14190;51.342;6.338;2023-07-28T05:54:12;5.83;;;2.52;;
26516;SDS011;14190;51.342;6.338;2023-07-28T05:56:44;2.52;;;1.30;;
26516;SDS011;14190;51.342;6.338;2023-07-28T05:59:12;3.45;;;1.00;;
26516;SDS011;14190;51.342;6.338;2023-07-28T06:01:40;2.67;;;1.75;;
26516;SDS011;14190;51.342;6.338;2023-07-28T06:04:18;4.08;;;1.67;;
26516;SDS011;14190;51.342;6.338;2023-07-28T06:06:47;5.75;;;3.35;;
26516;SDS011;14190;51.342;6.338;2023-07-28T06:09:16;6.12;;;3.92;;
26516;SDS011;14190;51.342;6.338;2023-07-28T06:11:45;6.35;;;4.33;;
26516;SDS011;14190;51.342;6.338;2023-07-28T06:14:12;3.72;;;1.92;;
26516;SDS011;14190;51.342;6.338;2023-07-28T06:16:40;4.83;;;2.05;;
26516;SDS011;14190;51.342;6.338;2023-07-28T06:19:07;2.98;;;1.60;;
26516;SDS011;14190;51.342;6.338;2023-07-28T06:21:36;4.47;;;2.25;;
26516;SDS011;14190;51.342;6.338;2023-07-28T06:24:03;3.60;;;1.77;;
26516;SDS011;14190;51.342;6.338;2023-07-28T06:26:32;5.75;;;2.37;;
26516;SDS011;14190;51.342;6.338;2023-07-28T06:28:59;7.85;;;2.83;;
26516;SDS011;14190;51.342;6.338;2023-07-28T06:31:27;5.95;;;3.50;;
26516;SDS011;14190;51.342;6.338;2023-07-28T06:33:55;4.60;;;2.77;;
26516;SDS011;14190;51.342;6.338;2023-07-28T06:36:22;4.60;;;2.67;;
26516;SDS011;14190;51.342;6.338;2023-07-28T06:38:49;5.72;;;2.95;;
26516;SDS011;14190;51.342;6.338;2023-07-28T06:41:18;5.37;;;2.55;;
26516;SDS011;14190;51.342;6.338;2023-07-28T06:43:46;4.80;;;3.10;;
26516;SDS011;14190;51.342;6.338;2023-07-28T06:46:14;5.55;;;3.85;;
26516;SDS011;14190;51.342;6.338;2023-07-28T06:48:42;3.98;;;1.80;;
26516;SDS011;14190;51.342;6.338;2023-07-28T06:51:09;8.05;;;4.35;;
26516;SDS011;14190;51.342;6.338;2023-07-28T06:53:36;7.28;;;4.28;;
26516;SDS011;14190;51.342;6.338;2023-07-28T06:56:06;8.48;;;5.33;;
26516;SDS011;14190;51.342;6.338;2023-07-28T06:58:33;8.38;;;4.70;;
26516;SDS011;14190;51.342;6.338;2023-07-28T07:01:01;5.72;;;3.92;;
26516;SDS011;14190;51.342;6.338;2023-07-28T07:03:28;7.08;;;3.27;;
26516;SDS011;14190;51.342;6.338;2023-07-28T07:05:55;8.43;;;3.87;;
26516;SDS011;14190;51.342;6.338;2023-07-28T07:08:23;10.60;;;3.37;;
26516;SDS011;14190;51.342;6.338;2023-07-28T07:10:50;7.67;;;3.70;;
26516;SDS011;14190;51.342;6.338;2023-07-28T07:13:18;5.53;;;3.17;;
26516;SDS011;14190;51.342;6.338;2023-07-28T07:15:46;7.72;;;3.62;;
26516;SDS011;14190;51.342;6.338;2023-07-28T07:18:13;21.30;;;8.65;;
26516;SDS011;14190;51.342;6.338;2023-07-28T07:20:40;9.43;;;5.53;;
26516;SDS011;14190;51.342;6.338;2023-07-28T07:23:08;4.92;;;3.70;;
26516;SDS011;14190;51.342;6.338;2023-07-28T07:25:35;2.83;;;2.47;;
26516;SDS011;14190;51.342;6.338;2023-07-28T07:28:03;4.28;;;2.65;;
26516;SDS011;14190;51.342;6.338;2023-07-28T07:30:33;3.60;;;2.35;;
26516;SDS011;14190;51.342;6.338;2023-07-28T07:33:01;2.58;;;1.95;;
26516;SDS011;14190;51.342;6.338;2023-07-28T07:35:28;2.60;;;1.72;;
26516;SDS011;14190;51.342;6.338;2023-07-28T07:37:55;4.50;;;2.35;;
26516;SDS011;14190;51.342;6.338;2023-07-28T07:40:23;4.22;;;2.35;;
26516;SDS011;14190;51.342;6.338;2023-07-28T07:42:50;2.25;;;1.55;;
26516;SDS011;14190;51.342;6.338;2023-07-28T07:45:19;4.28;;;1.90;;
26516;SDS011;14190;51.342;6.338;2023-07-28T07:47:46;3.58;;;2.05;;
26516;SDS011;14190;51.342;6.338;2023-07-28T07:50:14;4.37;;;2.05;;
26516;SDS011;14190;51.342;6.338;2023-07-28T07:52:42;1.77;;;1.62;;
26516;SDS011;14190;51.342;6.338;2023-07-28T07:55:10;3.42;;;2.62;;
26516;SDS011;14190;51.342;6.338;2023-07-28T07:57:40;2.40;;;1.32;;
26516;SDS011;14190;51.342;6.338;2023-07-28T08:00:08;2.47;;;1.92;;
26516;SDS011;14190;51.342;6.338;2023-07-28T08:02:40;5.78;;;2.40;;
26516;SDS011;14190;51.342;6.338;2023-07-28T08:05:08;2.30;;;1.50;;
26516;SDS011;14190;51.342;6.338;2023-07-28T08:07:36;1.35;;;1.25;;
26516;SDS011;14190;51.342;6.338;2023-07-28T08:10:03;2.62;;;1.37;;
26516;SDS011;14190;51.342;6.338;2023-07-28T08:12:31;6.58;;;2.10;;
26516;SDS011;14190;51.342;6.338;2023-07-28T08:14:58;2.50;;;1.77;;
26516;SDS011;14190;51.342;6.338;2023-07-28T08:17:26;3.75;;;1.75;;
26516;SDS011;14190;51.342;6.338;2023-07-28T08:19:53;4.00;;;1.37;;
26516;SDS011;14190;51.342;6.338;2023-07-28T08:22:21;6.85;;;3.72;;
26516;SDS011;14190;51.342;6.338;2023-07-28T08:24:48;5.47;;;2.77;;
26516;SDS011;14190;51.342;6.338;2023-07-28T08:27:16;5.42;;;3.15;;
26516;SDS011;14190;51.342;6.338;2023-07-28T08:29:43;7.90;;;2.70;;
26516;SDS011;14190;51.342;6.338;2023-07-28T08:32:10;5.12;;;2.50;;
26516;SDS011;14190;51.342;6.338;2023-07-28T08:34:38;4.60;;;2.98;;
26516;SDS011;14190;51.342;6.338;2023-07-28T08:37:05;3.67;;;2.60;;
26516;SDS011;14190;51.342;6.338;2023-07-28T08:39:32;3.30;;;1.67;;
26516;SDS011;14190;51.342;6.338;2023-07-28T08:42:00;1.85;;;1.37;;
26516;SDS011;14190;51.342;6.338;2023-07-28T08:44:29;3.12;;;2.08;;
26516;SDS011;14190;51.342;6.338;2023-07-28T08:46:57;2.72;;;2.25;;
26516;SDS011;14190;51.342;6.338;2023-07-28T08:49:25;6.28;;;2.72;;
26516;SDS011;14190;51.342;6.338;2023-07-28T08:51:56;6.60;;;2.83;;
26516;SDS011;14190;51.342;6.338;2023-07-28T08:54:21;4.53;;;2.80;;
26516;SDS011;14190;51.342;6.338;2023-07-28T08:56:49;4.30;;;2.75;;
26516;SDS011;14190;51.342;6.338;2023-07-28T08:59:23;5.80;;;2.22;;
26516;SDS011;14190;51.342;6.338;2023-07-28T09:01:53;0.95;;;0.82;;
26516;SDS011;14190;51.342;6.338;2023-07-28T09:04:21;1.12;;;0.40;;
26516;SDS011;14190;51.342;6.338;2023-07-28T09:06:48;0.80;;;0.40;;
26516;SDS011;14190;51.342;6.338;2023-07-28T09:09:20;0.53;;;0.53;;
26516;SDS011;14190;51.342;6.338;2023-07-28T09:11:49;0.95;;;0.37;;
26516;SDS011;14190;51.342;6.338;2023-07-28T09:14:17;0.33;;;0.30;;
26516;SDS011;14190;51.342;6.338;2023-07-28T09:16:45;1.05;;;0.95;;
26516;SDS011;14190;51.342;6.338;2023-07-28T09:19:13;0.20;;;0.20;;
26516;SDS011;14190;51.342;6.338;2023-07-28T09:21:44;0.70;;;0.62;;
26516;SDS011;14190;51.342;6.338;2023-07-28T09:24:14;1.82;;;0.65;;
26516;SDS011;14190;51.342;6.338;2023-07-28T09:26:44;3.27;;;1.22;;
26516;SDS011;14190;51.342;6.338;2023-07-28T09:31:45;0.62;;;0.62;;
26516;SDS011;14190;51.342;6.338;2023-07-28T09:34:12;0.20;;;0.20;;
26516;SDS011;14190;51.342;6.338;2023-07-28T09:36:41;0.95;;;0.47;;
26516;SDS011;14190;51.342;6.338;2023-07-28T09:39:08;4.15;;;2.00;;
26516;SDS011;14190;51.342;6.338;2023-07-28T09:41:36;1.90;;;1.05;;
26516;SDS011;14190;51.342;6.338;2023-07-28T09:44:04;1.22;;;0.78;;
26516;SDS011;14190;51.342;6.338;2023-07-28T09:46:35;0.45;;;0.45;;
26516;SDS011;14190;51.342;6.338;2023-07-28T09:49:10;1.92;;;1.82;;
26516;SDS011;14190;51.342;6.338;2023-07-28T09:51:32;0.40;;;0.23;;
26516;SDS011;14190;51.342;6.338;2023-07-28T09:54:07;1.25;;;0.50;;
26516;SDS011;14190;51.342;6.338;2023-07-28T09:56:31;1.20;;;0.40;;
26516;SDS011;14190;51.342;6.338;2023-07-28T09:59:01;0.28;;;0.28;;
26516;SDS011;14190;51.342;6.338;2023-07-28T10:01:30;0.45;;;0.40;;
26516;SDS011;14190;51.342;6.338;2023-07-28T10:03:58;0.70;;;0.62;;
26516;SDS011;14190;51.342;6.338;2023-07-28T10:06:25;2.15;;;0.78;;
26516;SDS011;14190;51.342;6.338;2023-07-28T10:08:53;0.90;;;0.90;;
26516;SDS011;14190;51.342;6.338;2023-07-28T10:11:21;0.53;;;0.42;;
26516;SDS011;14190;51.342;6.338;2023-07-28T10:13:50;0.30;;;0.30;;
26516;SDS011;14190;51.342;6.338;2023-07-28T10:16:17;2.15;;;0.68;;
26516;SDS011;14190;51.342;6.338;2023-07-28T10:18:51;0.20;;;0.20;;
26516;SDS011;14190;51.342;6.338;2023-07-28T10:21:19;2.20;;;0.85;;
26516;SDS011;14190;51.342;6.338;2023-07-28T10:24:09;2.98;;;1.50;;
26516;SDS011;14190;51.342;6.338;2023-07-28T10:26:16;1.65;;;1.45;;
26516;SDS011;14190;51.342;6.338;2023-07-28T10:28:45;2.35;;;1.02;;
26516;SDS011;14190;51.342;6.338;2023-07-28T10:31:12;0.42;;;0.42;;
26516;SDS011;14190;51.342;6.338;2023-07-28T10:33:46;18.02;;;2.72;;
26516;SDS011;14190;51.342;6.338;2023-07-28T10:36:12;1.75;;;1.30;;
26516;SDS011;14190;51.342;6.338;2023-07-28T10:38:40;3.02;;;0.65;;
26516;SDS011;14190;51.342;6.338;2023-07-28T10:41:13;1.42;;;1.05;;
26516;SDS011;14190;51.342;6.338;2023-07-28T10:43:41;8.43;;;2.87;;
26516;SDS011;14190;51.342;6.338;2023-07-28T10:46:09;8.30;;;2.00;;
26516;SDS011;14190;51.342;6.338;2023-07-28T10:48:37;10.32;;;3.58;;
26516;SDS011;14190;51.342;6.338;2023-07-28T10:51:04;11.48;;;3.02;;
26516;SDS011;14190;51.342;6.338;2023-07-28T10:53:32;3.62;;;1.57;;
26516;SDS011;14190;51.342;6.338;2023-07-28T10:56:01;1.32;;;0.80;;
26516;SDS011;14190;51.342;6.338;2023-07-28T10:58:33;1.77;;;0.53;;
26516;SDS011;14190;51.342;6.338;2023-07-28T11:01:02;4.72;;;1.82;;
26516;SDS011;14190;51.342;6.338;2023-07-28T11:03:29;6.03;;;2.05;;
26516;SDS011;14190;51.342;6.338;2023-07-28T11:05:57;6.17;;;1.77;;
26516;SDS011;14190;51.342;6.338;2023-07-28T11:08:24;39.15;;;5.58;;
26516;SDS011;14190;51.342;6.338;2023-07-28T11:10:52;2.80;;;1.37;;
26516;SDS011;14190;51.342;6.338;2023-07-28T11:13:19;1.32;;;0.65;;
26516;SDS011;14190;51.342;6.338;2023-07-28T11:15:46;4.37;;;2.00;;
26516;SDS011;14190;51.342;6.338;2023-07-28T11:18:14;5.67;;;1.27;;
26516;SDS011;14190;51.342;6.338;2023-07-28T11:20:42;9.18;;;2.77;;
26516;SDS011;14190;51.342;6.338;2023-07-28T11:23:13;0.20;;;0.20;;
26516;SDS011;14190;51.342;6.338;2023-07-28T11:25:40;0.57;;;0.30;;
26516;SDS011;14190;51.342;6.338;2023-07-28T11:28:08;2.98;;;1.60;;
26516;SDS011;14190;51.342;6.338;2023-07-28T11:30:36;1.42;;;1.17;;
26516;SDS011;14190;51.342;6.338;2023-07-28T11:33:09;1.17;;;0.80;;
26516;SDS011;14190;51.342;6.338;2023-07-28T11:38:06;0.93;;;0.45;;
26516;SDS011;14190;51.342;6.338;2023-07-28T11:40:34;0.75;;;0.30;;
26516;SDS011;14190;51.342;6.338;2023-07-28T11:43:02;2.17;;;1.00;;
26516;SDS011;14190;51.342;6.338;2023-07-28T11:45:30;0.30;;;0.20;;
26516;SDS011;14190;51.342;6.338;2023-07-28T11:47:58;1.07;;;0.70;;
26516;SDS011;14190;51.342;6.338;2023-07-28T11:50:26;0.82;;;0.65;;
26516;SDS011;14190;51.342;6.338;2023-07-28T11:52:54;1.67;;;1.17;;
26516;SDS011;14190;51.342;6.338;2023-07-28T11:55:22;0.35;;;0.20;;
26516;SDS011;14190;51.342;6.338;2023-07-28T11:57:53;0.45;;;0.33;;
26516;SDS011;14190;51.342;6.338;2023-07-28T12:00:30;2.05;;;1.00;;
26516;SDS011;14190;51.342;6.338;2023-07-28T12:03:04;5.95;;;1.62;;
26516;SDS011;14190;51.342;6.338;2023-07-28T12:05:32;0.42;;;0.23;;
26516;SDS011;14190;51.342;6.338;2023-07-28T12:08:00;0.55;;;0.33;;
26516;SDS011;14190;51.342;6.338;2023-07-28T12:10:27;0.37;;;0.33;;
26516;SDS011;14190;51.342;6.338;2023-07-28T12:12:55;0.20;;;0.20;;
26516;SDS011;14190;51.342;6.338;2023-07-28T12:15:26;0.50;;;0.50;;
26516;SDS011;14190;51.342;6.338;2023-07-28T12:18:10;0.20;;;0.20;;
26516;SDS011;14190;51.342;6.338;2023-07-28T12:20:53;0.10;;;0.10;;
26516;SDS011;14190;51.342;6.338;2023-07-28T12:23:21;0.23;;;0.23;;
26516;SDS011;14190;51.342;6.338;2023-07-28T12:25:49;0.33;;;0.25;;
26516;SDS011;14190;51.342;6.338;2023-07-28T12:28:17;0.30;;;0.10;;
26516;SDS011;14190;51.342;6.338;2023-07-28T12:30:44;3.37;;;0.20;;
26516;SDS011;14190;51.342;6.338;2023-07-28T12:33:12;0.93;;;0.50;;
26516;SDS011;14190;51.342;6.338;2023-07-28T12:35:39;9.60;;;4.08;;
26516;SDS011;14190;51.342;6.338;2023-07-28T12:38:06;4.58;;;2.30;;
26516;SDS011;14190;51.342;6.338;2023-07-28T12:40:34;0.28;;;0.28;;
26516;SDS011;14190;51.342;6.338;2023-07-28T12:43:02;0.10;;;0.10;;
26516;SDS011;14190;51.342;6.338;2023-07-28T12:45:31;1.77;;;0.30;;
26516;SDS011;14190;51.342;6.338;2023-07-28T12:47:58;0.10;;;0.10;;
26516;SDS011;14190;51.342;6.338;2023-07-28T12:50:25;0.25;;;0.20;;
26516;SDS011;14190;51.342;6.338;2023-07-28T12:52:53;0.35;;;0.30;;
26516;SDS011;14190;51.342;6.338;2023-07-28T12:55:20;0.10;;;0.10;;
26516;SDS011;14190;51.342;6.338;2023-07-28T12:57:47;0.47;;;0.23;;
26516;SDS011;14190;51.342;6.338;2023-07-28T13:00:15;0.42;;;0.42;;
26516;SDS011;14190;51.342;6.338;2023-07-28T13:02:43;0.30;;;0.30;;
26516;SDS011;14190;51.342;6.338;2023-07-28T13:05:11;0.62;;;0.25;;
26516;SDS011;14190;51.342;6.338;2023-07-28T13:07:38;0.20;;;0.20;;
26516;SDS011;14190;51.342;6.338;2023-07-28T13:10:08;0.37;;;0.37;;
26516;SDS011;14190;51.342;6.338;2023-07-28T13:12:37;2.75;;;0.35;;
26516;SDS011;14190;51.342;6.338;2023-07-28T13:15:04;2.47;;;1.30;;
26516;SDS011;14190;51.342;6.338;2023-07-28T13:17:32;3.95;;;2.30;;
26516;SDS011;14190;51.342;6.338;2023-07-28T13:19:59;1.60;;;1.05;;
26516;SDS011;14190;51.342;6.338;2023-07-28T13:22:27;1.10;;;0.68;;
26516;SDS011;14190;51.342;6.338;2023-07-28T13:24:54;29.42;;;1.87;;
26516;SDS011;14190;51.342;6.338;2023-07-28T13:27:22;3.47;;;2.80;;
26516;SDS011;14190;51.342;6.338;2023-07-28T13:29:49;0.70;;;0.60;;
26516;SDS011;14190;51.342;6.338;2023-07-28T13:32:22;0.28;;;0.28;;
26516;SDS011;14190;51.342;6.338;2023-07-28T13:34:46;0.43;;;0.27;;
26516;SDS011;14190;51.342;6.338;2023-07-28T13:37:13;1.35;;;0.28;;
26516;SDS011;14190;51.342;6.338;2023-07-28T13:39:41;0.57;;;0.50;;
26516;SDS011;14190;51.342;6.338;2023-07-28T13:42:09;0.80;;;0.53;;
26516;SDS011;14190;51.342;6.338;2023-07-28T13:44:38;6.12;;;2.47;;
26516;SDS011;14190;51.342;6.338;2023-07-28T13:47:05;5.25;;;1.47;;
26516;SDS011;14190;51.342;6.338;2023-07-28T13:49:33;2.42;;;0.98;;
26516;SDS011;14190;51.342;6.338;2023-07-28T13:52:02;3.40;;;1.98;;
26516;SDS011;14190;51.342;6.338;2023-07-28T13:54:29;2.50;;;0.95;;
26516;SDS011;14190;51.342;6.338;2023-07-28T13:56:57;2.95;;;0.50;;
26516;SDS011;14190;51.342;6.338;2023-07-28T13:59:24;1.15;;;0.72;;
26516;SDS011;14190;51.342;6.338;2023-07-28T14:01:52;2.30;;;1.25;;
26516;SDS011;14190;51.342;6.338;2023-07-28T14:04:19;1.55;;;0.88;;
26516;SDS011;14190;51.342;6.338;2023-07-28T14:06:46;5.15;;;2.17;;
26516;SDS011;14190;51.342;6.338;2023-07-28T14:09:14;1.82;;;0.60;;
26516;SDS011;14190;51.342;6.338;2023-07-28T14:11:41;0.28;;;0.28;;
26516;SDS011;14190;51.342;6.338;2023-07-28T14:14:08;0.72;;;0.50;;
26516;SDS011;14190;51.342;6.338;2023-07-28T14:16:36;3.17;;;1.02;;
26516;SDS011;14190;51.342;6.338;2023-07-28T14:19:03;0.50;;;0.50;;
26516;SDS011;14190;51.342;6.338;2023-07-28T14:21:30;0.45;;;0.45;;
26516;SDS011;14190;51.342;6.338;2023-07-28T14:23:58;1.62;;;1.05;;
26516;SDS011;14190;51.342;6.338;2023-07-28T14:26:25;0.60;;;0.60;;
26516;SDS011;14190;51.342;6.338;2023-07-28T14:28:52;4.40;;;0.65;;
26516;SDS011;14190;51.342;6.338;2023-07-28T14:31:20;5.95;;;2.08;;
26516;SDS011;14190;51.342;6.338;2023-07-28T14:33:48;2.17;;;1.50;;
26516;SDS011;14190;51.342;6.338;2023-07-28T14:36:16;5.58;;;1.57;;
26516;SDS011;14190;51.342;6.338;2023-07-28T14:38:43;5.95;;;2.70;;
26516;SDS011;14190;51.342;6.338;2023-07-28T14:41:11;0.78;;;0.65;;
26516;SDS011;14190;51.342;6.338;2023-07-28T14:43:38;0.40;;;0.40;;
26516;SDS011;14190;51.342;6.338;2023-07-28T14:46:05;1.85;;;0.80;;
26516;SDS011;14190;51.342;6.338;2023-07-28T14:48:33;1.98;;;0.80;;
26516;SDS011;14190;51.342;6.338;2023-07-28T14:51:01;6.87;;;2.20;;
26516;SDS011;14190;51.342;6.338;2023-07-28T14:53:36;1.27;;;0.93;;
26516;SDS011;14190;51.342;6.338;2023-07-28T14:56:04;3.72;;;1.37;;
26516;SDS011;14190;51.342;6.338;2023-07-28T14:58:32;8.85;;;2.62;;
26516;SDS011;14190;51.342;6.338;2023-07-28T15:00:59;6.22;;;2.58;;